createdAt,value
2018-09-09T00:01:42.712Z,15.30
2018-09-09T00:04:11.776Z,15.30
2018-09-09T00:06:40.774Z,15.30
2018-09-09T00:09:10.020Z,15.30
2018-09-09T00:11:40.186Z,15.30
2018-09-09T00:14:09.432Z,15.30
2018-09-09T00:16:38.591Z,15.20
2018-09-09T00:19:07.555Z,15.20
2018-09-09T00:21:36.604Z,15.20
2018-09-09T00:24:06.039Z,15.10
2018-09-09T00:26:35.068Z,15.10
2018-09-09T00:29:04.269Z,15.10
2018-09-09T00:31:33.324Z,15.10
2018-09-09T00:34:03.343Z,15.10
2018-09-09T00:36:32.416Z,15.10
2018-09-09T00:39:02.379Z,15.10
2018-09-09T00:41:32.084Z,15.10
2018-09-09T00:44:01.117Z,15.00
2018-09-09T00:46:30.164Z,15.00
2018-09-09T00:49:04.321Z,15.00
2018-09-09T00:51:38.560Z,14.90
2018-09-09T00:54:07.622Z,14.90
2018-09-09T00:56:36.612Z,14.90
2018-09-09T00:59:06.623Z,14.80
2018-09-09T01:01:35.693Z,14.80
2018-09-09T01:04:04.785Z,14.80
2018-09-09T01:06:33.904Z,14.80
2018-09-09T01:09:04.266Z,14.80
2018-09-09T01:11:34.912Z,14.80
2018-09-09T01:14:04.148Z,14.70
2018-09-09T01:16:33.525Z,14.80
2018-09-09T01:19:02.553Z,14.70
2018-09-09T01:21:32.905Z,14.70
2018-09-09T01:24:02.803Z,14.60
2018-09-09T01:26:32.876Z,14.60
2018-09-09T01:29:02.828Z,14.60
2018-09-09T01:31:33.021Z,14.60
2018-09-09T01:34:01.997Z,14.50
2018-09-09T01:36:31.019Z,14.50
2018-09-09T01:39:00.537Z,14.60
2018-09-09T01:41:29.588Z,14.60
2018-09-09T01:43:59.087Z,14.50
2018-09-09T01:46:28.088Z,14.50
2018-09-09T01:48:57.125Z,14.50
2018-09-09T01:51:26.100Z,14.50
2018-09-09T01:53:55.147Z,14.40
2018-09-09T01:56:25.156Z,14.40
2018-09-09T01:58:55.761Z,14.40
2018-09-09T02:01:24.828Z,14.40
2018-09-09T02:03:53.832Z,14.30
2018-09-09T02:06:23.112Z,14.30
2018-09-09T02:08:52.511Z,14.20
2018-09-09T02:11:21.554Z,14.20
2018-09-09T02:13:50.724Z,14.30
2018-09-09T02:16:20.849Z,14.30
2018-09-09T02:18:50.892Z,14.20
2018-09-09T02:21:19.892Z,14.20
2018-09-09T02:23:49.474Z,14.20
2018-09-09T02:26:18.548Z,14.20
2018-09-09T02:28:47.552Z,14.20
2018-09-09T02:31:16.560Z,14.20
2018-09-09T02:33:45.575Z,14.20
2018-09-09T02:36:14.635Z,14.20
2018-09-09T02:38:43.664Z,14.20
2018-09-09T02:41:12.708Z,14.20
2018-09-09T02:43:41.749Z,14.20
2018-09-09T02:46:11.424Z,14.20
2018-09-09T02:48:40.383Z,14.20
2018-09-09T02:51:09.403Z,14.10
2018-09-09T02:53:38.385Z,14.10
2018-09-09T02:56:10.743Z,14.10
2018-09-09T02:58:39.693Z,14.00
2018-09-09T03:01:08.704Z,14.00
2018-09-09T03:03:37.753Z,14.00
2018-09-09T03:06:06.787Z,14.00
2018-09-09T03:08:35.848Z,13.90
2018-09-09T03:11:09.896Z,13.90
2018-09-09T03:13:39.182Z,13.90
2018-09-09T03:16:08.208Z,13.80
2018-09-09T03:18:37.176Z,13.80
2018-09-09T03:21:06.315Z,13.90
2018-09-09T03:23:35.525Z,13.90
2018-09-09T03:26:04.581Z,13.80
2018-09-09T03:28:34.192Z,13.80
2018-09-09T03:31:03.165Z,13.80
2018-09-09T03:33:32.260Z,13.70
2018-09-09T03:36:01.220Z,13.70
2018-09-09T03:38:30.840Z,13.70
2018-09-09T03:40:59.867Z,13.70
2018-09-09T03:43:28.867Z,13.60
2018-09-09T03:45:57.831Z,13.60
2018-09-09T03:48:26.840Z,13.50
2018-09-09T03:50:55.809Z,13.40
2018-09-09T03:53:24.910Z,13.40
2018-09-09T03:55:53.896Z,13.40
2018-09-09T03:58:22.882Z,13.40
2018-09-09T04:00:51.995Z,13.40
2018-09-09T04:03:21.116Z,13.50
2018-09-09T04:05:50.195Z,13.40
2018-09-09T04:08:19.168Z,13.40
2018-09-09T04:10:48.167Z,13.40
2018-09-09T04:13:17.192Z,13.40
2018-09-09T04:15:46.173Z,13.40
2018-09-09T04:18:15.174Z,13.40
2018-09-09T04:20:44.169Z,13.40
2018-09-09T04:23:13.148Z,13.30
2018-09-09T04:25:42.106Z,13.30
2018-09-09T04:28:11.188Z,13.30
2018-09-09T04:30:40.239Z,13.30
2018-09-09T04:33:09.239Z,13.30
2018-09-09T04:35:38.269Z,13.20
2018-09-09T04:38:07.364Z,13.10
2018-09-09T04:40:36.472Z,13.10
2018-09-09T04:43:05.513Z,13.10
2018-09-09T04:45:34.574Z,13.10
2018-09-09T04:48:03.588Z,13.20
2018-09-09T04:50:32.580Z,13.10
2018-09-09T04:53:01.620Z,13.20
2018-09-09T04:55:30.619Z,13.20
2018-09-09T04:57:59.633Z,13.10
2018-09-09T05:00:28.656Z,13.20
2018-09-09T05:02:57.624Z,13.20
2018-09-09T05:05:27.476Z,13.20
2018-09-09T05:07:56.565Z,13.20
2018-09-09T05:10:25.524Z,13.20
2018-09-09T05:12:54.532Z,13.30
2018-09-09T05:15:23.489Z,13.30
2018-09-09T05:17:53.521Z,13.40
2018-09-09T05:20:22.580Z,13.50
2018-09-09T05:22:51.586Z,13.50
2018-09-09T05:25:20.660Z,13.60
2018-09-09T05:27:49.626Z,13.60
2018-09-09T05:30:18.878Z,13.70
2018-09-09T05:32:47.972Z,13.80
2018-09-09T05:35:17.002Z,13.90
2018-09-09T05:37:45.972Z,14.00
2018-09-09T05:40:15.332Z,14.10
2018-09-09T05:42:45.612Z,14.20
2018-09-09T05:45:14.607Z,14.30
2018-09-09T05:47:44.314Z,14.40
2018-09-09T05:50:14.569Z,14.50
2018-09-09T05:52:43.681Z,14.70
2018-09-09T05:55:12.748Z,14.90
2018-09-09T05:57:41.817Z,15.50
2018-09-09T06:00:10.872Z,15.70
2018-09-09T06:02:39.931Z,15.70
2018-09-09T06:05:08.981Z,15.80
2018-09-09T06:07:38.082Z,15.80
2018-09-09T06:10:07.169Z,15.90
2018-09-09T06:12:36.217Z,16.50
2018-09-09T06:15:05.658Z,16.80
2018-09-09T06:17:34.716Z,16.80
2018-09-09T06:20:04.066Z,16.70
2018-09-09T06:22:33.057Z,16.70
2018-09-09T06:25:02.149Z,16.60
2018-09-09T06:27:31.200Z,16.60
2018-09-09T06:30:00.316Z,16.60
2018-09-09T06:32:29.293Z,16.60
2018-09-09T06:34:58.373Z,16.60
2018-09-09T06:37:27.408Z,16.70
2018-09-09T06:39:56.407Z,16.70
2018-09-09T06:42:25.418Z,16.80
2018-09-09T06:44:54.419Z,17.20
2018-09-09T06:47:23.485Z,17.80
2018-09-09T06:49:52.459Z,18.20
2018-09-09T06:52:21.484Z,18.60
2018-09-09T06:54:50.528Z,18.90
2018-09-09T06:57:19.736Z,18.80
2018-09-09T06:59:48.876Z,18.70
2018-09-09T07:02:18.043Z,18.80
2018-09-09T07:04:47.190Z,19.10
2018-09-09T07:07:16.591Z,19.20
2018-09-09T07:09:45.773Z,19.30
2018-09-09T07:12:16.199Z,19.60
2018-09-09T07:14:45.330Z,19.70
2018-09-09T07:17:14.723Z,19.60
2018-09-09T07:19:43.784Z,19.40
2018-09-09T07:22:21.008Z,19.30
2018-09-09T07:24:54.756Z,19.20
2018-09-09T07:27:32.671Z,19.10
2018-09-09T07:30:13.824Z,19.00
2018-09-09T07:32:43.047Z,19.00
2018-09-09T07:35:12.310Z,19.00
2018-09-09T07:37:41.281Z,19.00
2018-09-09T07:40:10.309Z,19.10
2018-09-09T07:42:43.080Z,19.10
2018-09-09T07:45:12.339Z,19.10
2018-09-09T07:47:45.976Z,19.20
2018-09-09T07:50:19.272Z,19.20
2018-09-09T07:52:49.208Z,19.40
2018-09-09T07:55:20.796Z,19.50
2018-09-09T07:57:50.981Z,19.60
2018-09-09T08:00:22.323Z,19.70
2018-09-09T08:02:51.620Z,19.80
2018-09-09T08:05:23.632Z,19.90
2018-09-09T08:07:53.291Z,20.10
2018-09-09T08:10:22.268Z,20.20
2018-09-09T08:12:51.483Z,20.50
2018-09-09T08:15:20.992Z,20.60
2018-09-09T08:17:50.091Z,20.70
2018-09-09T08:20:19.144Z,20.70
2018-09-09T08:22:48.116Z,20.80
2018-09-09T08:25:17.645Z,20.90
2018-09-09T08:27:46.636Z,21.00
2018-09-09T08:30:15.752Z,21.10
2018-09-09T08:32:44.677Z,21.20
2018-09-09T08:35:13.710Z,21.30
2018-09-09T08:37:42.875Z,21.40
2018-09-09T08:40:14.817Z,21.50
2018-09-09T08:42:45.473Z,21.60
2018-09-09T08:45:16.141Z,21.70
2018-09-09T08:47:46.398Z,21.80
2018-09-09T08:50:16.471Z,21.90
2018-09-09T08:52:45.664Z,22.00
2018-09-09T08:55:14.860Z,22.10
2018-09-09T08:57:45.044Z,22.20
2018-09-09T09:00:14.243Z,22.40
2018-09-09T09:02:43.308Z,22.50
2018-09-09T09:05:12.316Z,22.60
2018-09-09T09:07:41.639Z,22.80
2018-09-09T09:10:11.472Z,22.70
2018-09-09T09:12:41.224Z,22.60
2018-09-09T09:15:10.390Z,22.70
2018-09-09T09:17:40.090Z,22.80
2018-09-09T09:20:09.485Z,22.90
2018-09-09T09:22:38.848Z,23.00
2018-09-09T09:25:08.166Z,23.10
2018-09-09T09:27:37.243Z,23.20
2018-09-09T09:30:06.751Z,23.30
2018-09-09T09:32:36.034Z,23.20
2018-09-09T09:35:05.426Z,23.10
2018-09-09T09:37:34.594Z,23.30
2018-09-09T09:40:03.806Z,23.60
2018-09-09T09:42:33.662Z,23.50
2018-09-09T09:45:04.396Z,23.50
2018-09-09T09:47:34.465Z,23.80
2018-09-09T09:50:03.820Z,24.00
2018-09-09T09:52:32.965Z,24.10
2018-09-09T09:55:02.235Z,24.20
2018-09-09T09:57:31.356Z,24.40
2018-09-09T10:00:01.097Z,24.70
2018-09-09T10:02:30.123Z,24.90
2018-09-09T10:04:59.312Z,25.20
2018-09-09T10:07:28.677Z,25.40
2018-09-09T10:09:58.196Z,25.40
2018-09-09T10:12:27.282Z,25.50
2018-09-09T10:14:57.534Z,25.70
2018-09-09T10:17:26.682Z,25.80
2018-09-09T10:19:55.928Z,25.90
2018-09-09T10:22:25.133Z,26.20
2018-09-09T10:24:54.444Z,26.40
2018-09-09T10:27:23.933Z,26.60
2018-09-09T10:29:53.332Z,26.70
2018-09-09T10:32:22.891Z,26.70
2018-09-09T10:34:52.293Z,26.80
2018-09-09T10:37:21.367Z,26.90
2018-09-09T10:39:51.196Z,27.10
2018-09-09T10:42:20.560Z,27.30
2018-09-09T10:44:50.180Z,27.50
2018-09-09T10:47:19.636Z,27.40
2018-09-09T10:49:48.674Z,27.40
2018-09-09T10:52:23.424Z,27.70
2018-09-09T10:54:52.550Z,27.90
2018-09-09T10:57:21.630Z,28.00
2018-09-09T10:59:50.751Z,28.20
2018-09-09T11:02:20.109Z,28.30
2018-09-09T11:04:49.184Z,28.10
2018-09-09T11:07:18.671Z,28.10
2018-09-09T11:09:47.704Z,28.10
2018-09-09T11:12:18.582Z,28.30
2018-09-09T11:14:47.608Z,28.60
2018-09-09T11:17:16.888Z,28.80
2018-09-09T11:19:46.053Z,28.80
2018-09-09T11:22:15.040Z,28.60
2018-09-09T11:24:44.082Z,28.40
2018-09-09T11:27:13.251Z,28.60
2018-09-09T11:29:42.395Z,28.80
2018-09-09T11:32:11.761Z,28.90
2018-09-09T11:34:40.947Z,29.10
2018-09-09T11:37:10.012Z,29.00
2018-09-09T11:39:39.424Z,28.90
2018-09-09T11:42:08.484Z,28.80
2018-09-09T11:44:37.559Z,28.40
2018-09-09T11:47:06.663Z,28.40
2018-09-09T11:49:35.854Z,28.70
2018-09-09T11:52:05.022Z,29.00
2018-09-09T11:54:34.265Z,29.40
2018-09-09T11:57:03.832Z,29.60
2018-09-09T11:59:33.010Z,29.90
2018-09-09T12:02:02.255Z,30.10
2018-09-09T12:04:31.500Z,30.20
2018-09-09T12:12:46.937Z,30.20
2018-09-09T12:32:40.389Z,30.70
2018-09-09T12:57:20.649Z,30.90
2018-09-09T12:59:49.729Z,31.10
2018-09-09T13:02:18.769Z,31.20
2018-09-09T13:07:22.388Z,31.30
2018-09-09T13:09:51.577Z,31.30
2018-09-09T13:12:20.707Z,31.50
2018-09-09T13:14:49.894Z,31.40
2018-09-09T13:17:18.940Z,31.70
2018-09-09T13:19:48.020Z,31.90
2018-09-09T13:22:17.120Z,31.80
2018-09-09T13:24:46.277Z,31.60
2018-09-09T13:27:15.712Z,31.80
2018-09-09T13:29:46.561Z,31.80
2018-09-09T13:32:15.670Z,31.80
2018-09-09T13:34:45.404Z,31.90
2018-09-09T13:37:14.542Z,31.90
2018-09-09T13:39:44.313Z,32.00
2018-09-09T13:42:14.326Z,32.00
2018-09-09T13:44:43.489Z,32.00
2018-09-09T13:47:12.552Z,32.00
2018-09-09T13:52:48.083Z,32.10
2018-09-09T13:55:17.170Z,31.90
2018-09-09T13:57:46.485Z,32.00
2018-09-09T14:00:19.174Z,32.10
2018-09-09T14:02:54.315Z,32.10
2018-09-09T14:05:41.915Z,32.10
2018-09-09T14:11:36.944Z,32.30
2018-09-09T14:14:06.056Z,32.10
2018-09-09T14:16:35.973Z,32.10
2018-09-09T14:19:05.001Z,32.20
2018-09-09T14:21:34.091Z,32.10
2018-09-09T14:24:03.166Z,32.20
2018-09-09T14:26:32.858Z,32.40
2018-09-09T14:29:02.266Z,32.60
2018-09-09T14:31:31.311Z,32.60
2018-09-09T14:34:00.301Z,32.40
2018-09-09T14:36:29.302Z,32.30
2018-09-09T14:38:58.309Z,32.40
2018-09-09T14:41:27.809Z,32.40
2018-09-09T14:43:56.790Z,32.70
2018-09-09T14:46:25.758Z,33.00
2018-09-09T14:48:54.781Z,33.20
2018-09-09T14:51:23.826Z,33.40
2018-09-09T14:53:52.792Z,33.70
2018-09-09T14:56:21.801Z,34.00
2018-09-09T14:58:50.924Z,34.30
2018-09-09T15:01:20.035Z,34.80
2018-09-09T15:03:49.444Z,35.60
2018-09-09T15:06:18.874Z,35.50
2018-09-09T15:08:47.873Z,35.30
2018-09-09T15:11:17.093Z,34.80
2018-09-09T15:13:46.153Z,34.40
2018-09-09T15:16:15.112Z,34.30
2018-09-09T15:18:46.082Z,34.40
2018-09-09T15:21:15.106Z,34.80
2018-09-09T15:23:44.113Z,34.60
2018-09-09T15:26:13.153Z,33.90
2018-09-09T15:28:42.148Z,33.70
2018-09-09T15:31:11.221Z,33.60
2018-09-09T15:33:40.221Z,33.70
2018-09-09T15:36:09.952Z,34.50
2018-09-09T15:38:38.945Z,35.60
2018-09-09T15:41:07.908Z,36.30
2018-09-09T15:43:36.931Z,37.10
2018-09-09T15:46:05.968Z,36.70
2018-09-09T15:48:34.981Z,36.40
2018-09-09T15:51:04.191Z,36.50
2018-09-09T15:53:33.225Z,36.50
2018-09-09T15:56:02.281Z,36.40
2018-09-09T15:58:31.316Z,36.90
2018-09-09T16:01:00.452Z,36.80
2018-09-09T16:03:29.457Z,36.60
2018-09-09T16:05:58.510Z,37.00
2018-09-09T16:08:28.593Z,36.70
2018-09-09T16:10:58.073Z,37.30
2018-09-09T16:13:27.086Z,37.70
2018-09-09T16:15:56.154Z,37.60
2018-09-09T16:18:25.211Z,36.30
2018-09-09T16:20:54.246Z,34.20
2018-09-09T16:23:23.332Z,32.20
2018-09-09T16:25:52.823Z,30.70
2018-09-09T16:28:21.897Z,29.70
2018-09-09T16:30:51.107Z,29.00
2018-09-09T16:33:20.280Z,28.30
2018-09-09T16:35:49.330Z,27.90
2018-09-09T16:38:18.308Z,27.60
2018-09-09T16:40:47.316Z,27.30
2018-09-09T16:43:16.317Z,27.10
2018-09-09T16:45:45.436Z,26.90
2018-09-09T16:48:14.440Z,26.80
2018-09-09T16:50:43.461Z,26.50
2018-09-09T16:53:13.119Z,26.20
2018-09-09T16:55:42.430Z,25.80
2018-09-09T16:58:11.693Z,25.60
2018-09-09T17:00:40.728Z,25.50
2018-09-09T17:03:09.733Z,25.30
2018-09-09T17:05:38.745Z,25.10
2018-09-09T17:08:07.880Z,25.10
2018-09-09T17:10:36.845Z,25.00
2018-09-09T17:13:05.890Z,24.90
2018-09-09T17:15:34.905Z,24.60
2018-09-09T17:18:03.879Z,24.40
2018-09-09T17:20:32.977Z,24.20
2018-09-09T17:23:02.025Z,24.20
2018-09-09T17:25:31.008Z,24.10
2018-09-09T17:28:00.031Z,24.00
2018-09-09T17:30:29.016Z,23.90
2018-09-09T17:32:58.078Z,23.80
2018-09-09T17:35:27.046Z,23.70
2018-09-09T17:37:56.085Z,23.60
2018-09-09T17:40:25.091Z,23.50
2018-09-09T17:42:54.094Z,23.50
2018-09-09T17:45:23.206Z,23.40
2018-09-09T17:47:52.272Z,23.20
2018-09-09T17:50:21.333Z,23.10
2018-09-09T17:52:50.449Z,23.00
2018-09-09T17:55:19.417Z,22.90
2018-09-09T17:57:48.425Z,22.80
2018-09-09T18:00:17.415Z,22.70
2018-09-09T18:02:46.470Z,22.50
2018-09-09T18:05:15.457Z,22.50
2018-09-09T18:07:44.443Z,22.50
2018-09-09T18:10:13.461Z,22.40
2018-09-09T18:12:42.473Z,22.40
2018-09-09T18:15:11.501Z,22.30
2018-09-09T18:17:40.568Z,22.20
2018-09-09T18:20:09.771Z,22.10
2018-09-09T18:22:38.989Z,22.00
2018-09-09T18:25:08.471Z,21.90
2018-09-09T18:27:37.558Z,21.90
2018-09-09T18:30:06.981Z,21.80
2018-09-09T18:32:35.972Z,21.80
2018-09-09T18:35:05.154Z,21.70
2018-09-09T18:37:34.140Z,21.70
2018-09-09T18:40:03.193Z,21.60
2018-09-09T18:42:32.181Z,21.60
2018-09-09T18:45:01.279Z,21.60
2018-09-09T18:47:30.352Z,21.50
2018-09-09T18:49:59.363Z,21.50
2018-09-09T18:52:28.400Z,21.50
2018-09-09T18:54:57.437Z,21.40
2018-09-09T18:57:26.607Z,21.40
2018-09-09T18:59:55.797Z,21.30
2018-09-09T19:02:24.805Z,21.30
2018-09-09T19:04:53.872Z,21.20
2018-09-09T19:07:23.576Z,21.10
2018-09-09T19:09:53.588Z,21.10
2018-09-09T19:12:22.684Z,21.10
2018-09-09T19:14:51.845Z,21.00
2018-09-09T19:17:20.973Z,21.00
2018-09-09T19:19:50.086Z,20.90
2018-09-09T19:22:19.190Z,20.70
2018-09-09T19:24:48.232Z,20.70
2018-09-09T19:27:17.296Z,20.60
2018-09-09T19:29:46.383Z,20.50
2018-09-09T19:32:15.449Z,20.50
2018-09-09T19:34:44.979Z,20.50
2018-09-09T19:37:14.168Z,20.40
2018-09-09T19:39:43.462Z,20.40
2018-09-09T19:42:14.134Z,20.30
2018-09-09T19:44:43.426Z,20.30
2018-09-09T19:47:12.623Z,20.20
2018-09-09T19:49:41.773Z,20.20
2018-09-09T19:52:10.835Z,20.10
2018-09-09T19:54:39.961Z,20.10
2018-09-09T19:57:10.129Z,20.00
2018-09-09T19:59:39.554Z,19.90
2018-09-09T20:02:08.725Z,19.90
2018-09-09T20:04:37.751Z,19.80
2018-09-09T20:07:06.814Z,19.80
2018-09-09T20:09:35.838Z,19.80
2018-09-09T20:12:04.875Z,19.70
2018-09-09T20:14:33.941Z,19.70
2018-09-09T20:17:03.053Z,19.70
2018-09-09T20:19:32.065Z,19.60
2018-09-09T20:22:01.103Z,19.50
2018-09-09T20:24:30.241Z,19.50
2018-09-09T20:26:59.240Z,19.40
2018-09-09T20:29:28.241Z,19.40
2018-09-09T20:31:57.405Z,19.30
2018-09-09T20:34:26.460Z,19.30
2018-09-09T20:36:55.501Z,19.30
2018-09-09T20:39:24.534Z,19.20
2018-09-09T20:41:53.623Z,19.10
2018-09-09T20:44:22.659Z,19.10
2018-09-09T20:46:52.314Z,19.10
2018-09-09T20:49:21.626Z,19.00
2018-09-09T20:51:51.331Z,19.00
2018-09-09T20:54:20.641Z,19.00
2018-09-09T20:56:49.666Z,18.90
2018-09-09T20:59:18.667Z,18.90
2018-09-09T21:01:47.748Z,18.80
2018-09-09T21:04:17.792Z,18.80
2018-09-09T21:06:46.941Z,18.80
2018-09-09T21:09:15.957Z,18.70
2018-09-09T21:11:44.953Z,18.60
2018-09-09T21:14:14.721Z,18.50
2018-09-09T21:16:43.978Z,18.50
2018-09-09T21:19:13.009Z,18.50
2018-09-09T21:21:41.988Z,18.50
2018-09-09T21:24:10.989Z,18.50
2018-09-09T21:26:39.976Z,18.40
2018-09-09T21:29:09.029Z,18.30
2018-09-09T21:31:38.174Z,18.30
2018-09-09T21:34:07.231Z,18.20
2018-09-09T21:36:36.246Z,18.20
2018-09-09T21:39:08.108Z,18.20
2018-09-09T21:41:37.424Z,18.20
2018-09-09T21:44:06.482Z,18.10
2018-09-09T21:46:35.502Z,18.10
2018-09-09T21:49:04.553Z,18.00
2018-09-09T21:51:33.541Z,17.90
2018-09-09T21:54:02.521Z,17.80
2018-09-09T21:56:31.536Z,17.80
2018-09-09T21:59:00.524Z,17.80
2018-09-09T22:02:36.407Z,17.70
2018-09-09T22:05:05.477Z,17.70
2018-09-09T22:07:34.497Z,17.70
2018-09-09T22:10:03.526Z,17.70
2018-09-09T22:12:32.585Z,17.70
2018-09-09T22:15:01.613Z,17.60
2018-09-09T22:17:30.593Z,17.60
2018-09-09T22:19:59.608Z,17.60
2018-09-09T22:22:28.649Z,17.50
2018-09-09T22:24:57.647Z,17.50
2018-09-09T22:27:26.700Z,17.50
2018-09-09T22:29:55.689Z,17.40
2018-09-09T22:32:24.700Z,17.30
2018-09-09T22:34:53.781Z,17.30
2018-09-09T22:37:22.809Z,17.30
2018-09-09T22:39:51.789Z,17.20
2018-09-09T22:42:20.934Z,17.20
2018-09-09T22:44:49.937Z,17.20
2018-09-09T22:47:18.932Z,17.20
2018-09-09T22:49:47.932Z,17.10
2018-09-09T22:52:16.913Z,17.10
2018-09-09T22:54:45.901Z,17.10
2018-09-09T22:57:14.928Z,17.10
2018-09-09T22:59:43.932Z,17.10
2018-09-09T23:02:12.937Z,17.10
2018-09-09T23:04:41.945Z,17.00
2018-09-09T23:07:10.967Z,17.00
2018-09-09T23:09:40.030Z,16.90
2018-09-09T23:12:09.037Z,16.90
2018-09-09T23:14:38.072Z,16.90
2018-09-09T23:17:07.090Z,16.90
2018-09-09T23:19:36.169Z,16.90
2018-09-09T23:22:05.173Z,16.90
2018-09-09T23:24:34.193Z,16.80
2018-09-09T23:27:03.262Z,16.80
2018-09-09T23:29:32.281Z,16.70
2018-09-09T23:32:01.312Z,16.70
2018-09-09T23:34:30.390Z,16.60
2018-09-09T23:36:59.398Z,16.60
2018-09-09T23:39:28.426Z,16.50
2018-09-09T23:41:57.423Z,16.50
2018-09-09T23:44:26.392Z,16.50
2018-09-09T23:46:55.841Z,16.40
2018-09-09T23:49:24.885Z,16.40
2018-09-09T23:51:53.876Z,16.30
2018-09-09T23:54:22.864Z,16.30
2018-09-09T23:56:51.930Z,16.30
2018-09-09T23:59:21.055Z,16.30
